Terminal Aerodrome Forecast
Issued by NWS Tampa Bay Area, FL

Home | Current Version | Previous Version | Text Only | Print | Product List | Glossary Off
Versions: 1 2 3 4 5 6 7 8 9 10 11 12 13

000
FTUS42 KTBW 040537
TAFSRQ
TAF
KSRQ 040537Z 0406/0506 24006KT P6SM FEW015 SCT035
     FM040900 23007KT P6SM VCSH FEW010 BKN020 BKN090
     FM041400 24010G15KT 6SM TSRA SCT015 BKN025CB BKN035
     FM042200 31014G20KT P6SM VCSH SCT010 BKN020
     FM050100 30010KT P6SM SCT025 SCT100=

USA.gov is the U.S. government's official web portal to all federal, state and local government web resources and services.